»·PEaware :: N1SC KJFK-KEWR

N1SC :: KJFK-KEWR

FLIGHT INFORMATION

Flight Status: Arrived
Operator: Privately registered:
United States
More flights under this callsign
Pilot: Anonymous 10181 (10181)
Aircraft: PILATUS PC-12 EAGLE
(PC12)
More flights by this aircraft type
Origin: KJFK Kennedy Intl
United States
Destination: KEWR Newark Intl
United States
More flights between these airports :: More routes between these airports
Route: JFK5 V16 DIXIE V276 RBV V249 SBJ
File this flight plan on PilotEdge
Remarks: Happy Wednesday!
Altitude:
(Current/Filed)
6,000ft
Speed:
(Current/Filed)
200kts
Departed: 07-Dec-22 11:33 AM
Arrived: 07-Dec-22 12:04 PM
Distance/Time
Traveled:
18nm/0:30
Distance/Time
To Go:
Arrived

Flight Plot

Page will automatically refresh every two minutes.

Flight plan parsing failed; only flown route is shown


Map Options




Map Legend


Flown Route
Filed Route
Departure Airport
Arrival Airport
Navaid (VOR, NDB)
Fix

Horizontal Profiles

Position Reports

Time Latitude Longitude Heading Altitude Ground
Speed
07-Dec-22 11:06 40.650628 -73.811686 331 16ft 0kts
07-Dec-22 11:07 40.650628 -73.811686 331 16ft 0kts
07-Dec-22 11:08 40.650628 -73.811686 331 16ft 0kts
07-Dec-22 11:09 40.650628 -73.811686 331 16ft 0kts
07-Dec-22 11:10 40.650628 -73.811686 331 16ft 0kts
07-Dec-22 11:11 40.650628 -73.811686 331 16ft 0kts
07-Dec-22 11:12 40.650628 -73.811686 331 16ft 0kts
07-Dec-22 11:13 40.650628 -73.811686 331 16ft 0kts
07-Dec-22 11:14 40.650628 -73.811686 331 16ft 0kts
07-Dec-22 11:15 40.650628 -73.811686 331 16ft 0kts
07-Dec-22 11:16 40.650628 -73.811686 331 16ft 0kts
07-Dec-22 11:17 40.650628 -73.811686 331 16ft 0kts
07-Dec-22 11:18 40.650628 -73.811686 331 16ft 0kts
07-Dec-22 11:19 40.650628 -73.811686 331 16ft 0kts
07-Dec-22 11:20 40.650628 -73.811686 331 16ft 0kts
07-Dec-22 11:21 40.650315 -73.811345 290 16ft 6kts
07-Dec-22 11:22 40.650307 -73.811379 238 16ft 0kts
07-Dec-22 11:23 40.650307 -73.811379 238 16ft 0kts
07-Dec-22 11:24 40.650307 -73.811379 238 16ft 0kts
07-Dec-22 11:25 40.650307 -73.811379 238 16ft 0kts
07-Dec-22 11:26 40.650307 -73.811379 238 16ft 0kts
07-Dec-22 11:27 40.650307 -73.811379 238 16ft 0kts
07-Dec-22 11:28 40.650307 -73.811379 238 16ft 0kts
07-Dec-22 11:29 40.649617 -73.811875 188 16ft 0kts
07-Dec-22 11:30 40.649735 -73.813858 303 16ft 20kts
07-Dec-22 11:31 40.649066 -73.815957 205 18ft 1kts
07-Dec-22 11:32 40.643643 -73.806240 120 100ft 113kts
07-Dec-22 11:33 40.624400 -73.769231 152 1899ft 152kts
07-Dec-22 11:34 40.574482 -73.753070 167 3716ft 186kts
07-Dec-22 11:35 40.525648 -73.775684 226 5306ft 213kts
07-Dec-22 11:36 40.483842 -73.835945 228 5965ft 229kts
07-Dec-22 11:37 40.441196 -73.898465 228 5996ft 225kts
07-Dec-22 11:38 40.404453 -73.962771 260 5221ft 220kts
07-Dec-22 11:39 40.400216 -74.042512 267 4243ft 218kts
07-Dec-22 11:40 40.397408 -74.122108 267 3250ft 217kts
07-Dec-22 11:41 40.394837 -74.198384 267 3009ft 212kts
07-Dec-22 11:42 40.408665 -74.264876 342 2974ft 201kts
07-Dec-22 11:43 40.465058 -74.269913 358 3008ft 208kts
07-Dec-22 11:44 40.523939 -74.272246 358 2690ft 222kts
07-Dec-22 11:45 40.574894 -74.236166 35 2018ft 177kts
07-Dec-22 11:46 40.611428 -74.215525 27 1983ft 146kts
07-Dec-22 11:47 40.650943 -74.191269 24 709ft 146kts
07-Dec-22 11:48 40.687091 -74.168229 25 133ft 186kts
07-Dec-22 11:49 40.728439 -74.125142 58 2266ft 202kts
07-Dec-22 11:50 40.774959 -74.075823 16 2490ft 241kts
07-Dec-22 11:51 40.819782 -74.114810 262 2852ft 204kts
07-Dec-22 11:52 40.803800 -74.186310 239 2989ft 207kts
07-Dec-22 11:53 40.772637 -74.252094 237 3004ft 213kts
07-Dec-22 11:54 40.725691 -74.296703 207 3001ft 213kts
07-Dec-22 11:55 40.673053 -74.332970 207 3002ft 212kts
07-Dec-22 11:56 40.619236 -74.340347 159 2988ft 194kts
07-Dec-22 11:57 40.571819 -74.316400 158 2989ft 169kts
07-Dec-22 11:58 40.539068 -74.285020 80 2847ft 156kts
07-Dec-22 11:59 40.569603 -74.238398 12 2465ft 177kts
07-Dec-22 12:00 40.610958 -74.216849 28 1589ft 145kts
07-Dec-22 12:01 40.645653 -74.194872 24 1130ft 142kts
07-Dec-22 12:02 40.678789 -74.173587 25 298ft 121kts
07-Dec-22 12:03 40.698354 -74.162953 285 13ft 16kts
07-Dec-22 12:04 40.699188 -74.165674 307 11ft 0kts
07-Dec-22 12:05 40.702815 -74.167212 10 16ft 19kts
07-Dec-22 12:06 40.706961 -74.167798 315 18ft 0kts

Navigation Log

Ident Type
Flight plan parsing failed, navigation log unavailable